sensor_id;sensor_type;location;lat;lon;timestamp;P1;durP1;ratioP1;P2;durP2;ratioP2
18748;SDS011;9503;53.560;10.246;2023-07-29T00:01:30;4.32;;;3.63;;
18748;SDS011;9503;53.560;10.246;2023-07-29T00:03:56;4.43;;;4.03;;
18748;SDS011;9503;53.560;10.246;2023-07-29T00:06:23;4.65;;;3.70;;
18748;SDS011;9503;53.560;10.246;2023-07-29T00:08:50;4.05;;;3.33;;
18748;SDS011;9503;53.560;10.246;2023-07-29T00:11:16;7.25;;;4.03;;
18748;SDS011;9503;53.560;10.246;2023-07-29T00:13:43;6.18;;;4.15;;
18748;SDS011;9503;53.560;10.246;2023-07-29T00:16:11;5.28;;;3.92;;
18748;SDS011;9503;53.560;10.246;2023-07-29T00:18:40;7.32;;;3.50;;
18748;SDS011;9503;53.560;10.246;2023-07-29T00:21:07;4.90;;;4.40;;
18748;SDS011;9503;53.560;10.246;2023-07-29T00:23:33;6.25;;;4.03;;
18748;SDS011;9503;53.560;10.246;2023-07-29T00:26:00;5.90;;;3.92;;
18748;SDS011;9503;53.560;10.246;2023-07-29T00:28:27;4.53;;;3.80;;
18748;SDS011;9503;53.560;10.246;2023-07-29T00:30:53;5.53;;;3.58;;
18748;SDS011;9503;53.560;10.246;2023-07-29T00:33:22;5.43;;;4.00;;
18748;SDS011;9503;53.560;10.246;2023-07-29T00:35:48;4.80;;;4.20;;
18748;SDS011;9503;53.560;10.246;2023-07-29T00:38:15;4.53;;;3.70;;
18748;SDS011;9503;53.560;10.246;2023-07-29T00:40:42;4.30;;;3.53;;
18748;SDS011;9503;53.560;10.246;2023-07-29T00:43:08;4.57;;;3.60;;
18748;SDS011;9503;53.560;10.246;2023-07-29T00:45:35;4.28;;;3.83;;
18748;SDS011;9503;53.560;10.246;2023-07-29T00:48:02;4.75;;;4.32;;
18748;SDS011;9503;53.560;10.246;2023-07-29T00:50:31;6.78;;;4.63;;
18748;SDS011;9503;53.560;10.246;2023-07-29T00:52:58;5.80;;;4.72;;
18748;SDS011;9503;53.560;10.246;2023-07-29T00:55:25;5.88;;;4.35;;
18748;SDS011;9503;53.560;10.246;2023-07-29T00:57:53;6.78;;;5.15;;
18748;SDS011;9503;53.560;10.246;2023-07-29T01:00:20;5.13;;;4.53;;
18748;SDS011;9503;53.560;10.246;2023-07-29T01:02:47;5.35;;;4.85;;
18748;SDS011;9503;53.560;10.246;2023-07-29T01:05:14;8.25;;;4.70;;
18748;SDS011;9503;53.560;10.246;2023-07-29T01:07:47;5.82;;;4.88;;
18748;SDS011;9503;53.560;10.246;2023-07-29T01:10:19;8.60;;;5.30;;
18748;SDS011;9503;53.560;10.246;2023-07-29T01:12:54;6.07;;;4.65;;
18748;SDS011;9503;53.560;10.246;2023-07-29T01:15:28;7.68;;;5.63;;
18748;SDS011;9503;53.560;10.246;2023-07-29T01:18:02;7.50;;;6.07;;
18748;SDS011;9503;53.560;10.246;2023-07-29T01:20:32;10.95;;;6.22;;
18748;SDS011;9503;53.560;10.246;2023-07-29T01:23:01;7.25;;;5.93;;
18748;SDS011;9503;53.560;10.246;2023-07-29T01:25:29;6.80;;;6.05;;
18748;SDS011;9503;53.560;10.246;2023-07-29T01:27:56;8.48;;;7.18;;
18748;SDS011;9503;53.560;10.246;2023-07-29T01:30:25;7.53;;;6.53;;
18748;SDS011;9503;53.560;10.246;2023-07-29T01:32:58;8.75;;;6.80;;
18748;SDS011;9503;53.560;10.246;2023-07-29T01:35:31;7.30;;;6.55;;
18748;SDS011;9503;53.560;10.246;2023-07-29T01:38:03;10.27;;;6.60;;
18748;SDS011;9503;53.560;10.246;2023-07-29T01:40:34;8.95;;;6.07;;
18748;SDS011;9503;53.560;10.246;2023-07-29T01:43:01;10.27;;;7.03;;
18748;SDS011;9503;53.560;10.246;2023-07-29T01:45:28;8.00;;;7.22;;
18748;SDS011;9503;53.560;10.246;2023-07-29T01:47:56;8.95;;;7.30;;
18748;SDS011;9503;53.560;10.246;2023-07-29T01:50:23;7.78;;;6.85;;
18748;SDS011;9503;53.560;10.246;2023-07-29T01:52:50;7.82;;;6.78;;
18748;SDS011;9503;53.560;10.246;2023-07-29T01:55:16;7.35;;;6.55;;
18748;SDS011;9503;53.560;10.246;2023-07-29T01:57:44;8.75;;;7.28;;
18748;SDS011;9503;53.560;10.246;2023-07-29T02:00:11;8.25;;;6.95;;
18748;SDS011;9503;53.560;10.246;2023-07-29T02:02:38;7.90;;;6.90;;
18748;SDS011;9503;53.560;10.246;2023-07-29T02:05:05;7.78;;;6.88;;
18748;SDS011;9503;53.560;10.246;2023-07-29T02:07:32;8.35;;;6.28;;
18748;SDS011;9503;53.560;10.246;2023-07-29T02:09:58;8.02;;;7.00;;
18748;SDS011;9503;53.560;10.246;2023-07-29T02:12:25;9.15;;;7.13;;
18748;SDS011;9503;53.560;10.246;2023-07-29T02:14:53;17.17;;;7.60;;
18748;SDS011;9503;53.560;10.246;2023-07-29T02:17:20;10.70;;;7.88;;
18748;SDS011;9503;53.560;10.246;2023-07-29T02:19:46;10.20;;;8.00;;
18748;SDS011;9503;53.560;10.246;2023-07-29T02:22:16;7.85;;;7.10;;
18748;SDS011;9503;53.560;10.246;2023-07-29T02:24:43;9.30;;;7.93;;
18748;SDS011;9503;53.560;10.246;2023-07-29T02:27:10;11.27;;;8.00;;
18748;SDS011;9503;53.560;10.246;2023-07-29T02:29:37;11.07;;;7.60;;
18748;SDS011;9503;53.560;10.246;2023-07-29T02:32:05;9.95;;;7.72;;
18748;SDS011;9503;53.560;10.246;2023-07-29T02:34:32;10.63;;;8.30;;
18748;SDS011;9503;53.560;10.246;2023-07-29T02:36:58;11.30;;;7.72;;
18748;SDS011;9503;53.560;10.246;2023-07-29T02:39:25;11.20;;;8.35;;
18748;SDS011;9503;53.560;10.246;2023-07-29T02:41:52;11.20;;;7.65;;
18748;SDS011;9503;53.560;10.246;2023-07-29T02:44:20;9.32;;;7.50;;
18748;SDS011;9503;53.560;10.246;2023-07-29T02:46:47;11.45;;;8.15;;
18748;SDS011;9503;53.560;10.246;2023-07-29T02:49:15;14.32;;;8.98;;
18748;SDS011;9503;53.560;10.246;2023-07-29T02:51:41;11.07;;;8.93;;
18748;SDS011;9503;53.560;10.246;2023-07-29T02:54:08;12.02;;;10.48;;
18748;SDS011;9503;53.560;10.246;2023-07-29T02:56:34;14.27;;;9.15;;
18748;SDS011;9503;53.560;10.246;2023-07-29T02:59:01;12.73;;;9.85;;
18748;SDS011;9503;53.560;10.246;2023-07-29T03:01:28;11.95;;;8.30;;
18748;SDS011;9503;53.560;10.246;2023-07-29T03:03:54;14.38;;;9.95;;
18748;SDS011;9503;53.560;10.246;2023-07-29T03:06:23;14.43;;;10.43;;
18748;SDS011;9503;53.560;10.246;2023-07-29T03:08:50;13.10;;;9.98;;
18748;SDS011;9503;53.560;10.246;2023-07-29T03:11:17;15.07;;;10.70;;
18748;SDS011;9503;53.560;10.246;2023-07-29T03:13:43;17.63;;;10.40;;
18748;SDS011;9503;53.560;10.246;2023-07-29T03:16:11;13.75;;;10.32;;
18748;SDS011;9503;53.560;10.246;2023-07-29T03:18:38;15.15;;;10.93;;
18748;SDS011;9503;53.560;10.246;2023-07-29T03:21:06;13.80;;;10.40;;
18748;SDS011;9503;53.560;10.246;2023-07-29T03:23:34;12.82;;;10.70;;
18748;SDS011;9503;53.560;10.246;2023-07-29T03:26:02;14.23;;;10.85;;
18748;SDS011;9503;53.560;10.246;2023-07-29T03:28:35;14.57;;;11.07;;
18748;SDS011;9503;53.560;10.246;2023-07-29T03:31:03;14.60;;;11.80;;
18748;SDS011;9503;53.560;10.246;2023-07-29T03:33:29;14.85;;;12.15;;
18748;SDS011;9503;53.560;10.246;2023-07-29T03:35:56;16.33;;;11.98;;
18748;SDS011;9503;53.560;10.246;2023-07-29T03:38:23;17.15;;;11.48;;
18748;SDS011;9503;53.560;10.246;2023-07-29T03:40:51;17.35;;;12.55;;
18748;SDS011;9503;53.560;10.246;2023-07-29T03:43:18;16.58;;;12.32;;
18748;SDS011;9503;53.560;10.246;2023-07-29T03:45:45;18.48;;;12.80;;
18748;SDS011;9503;53.560;10.246;2023-07-29T03:48:11;17.63;;;12.90;;
18748;SDS011;9503;53.560;10.246;2023-07-29T03:50:38;16.73;;;13.10;;
18748;SDS011;9503;53.560;10.246;2023-07-29T03:53:05;17.30;;;12.77;;
18748;SDS011;9503;53.560;10.246;2023-07-29T03:55:31;17.80;;;13.32;;
18748;SDS011;9503;53.560;10.246;2023-07-29T03:58:00;24.38;;;14.18;;
18748;SDS011;9503;53.560;10.246;2023-07-29T04:00:26;22.23;;;15.18;;
18748;SDS011;9503;53.560;10.246;2023-07-29T04:02:53;22.48;;;15.85;;
18748;SDS011;9503;53.560;10.246;2023-07-29T04:05:20;24.40;;;16.60;;
18748;SDS011;9503;53.560;10.246;2023-07-29T04:07:46;24.17;;;17.05;;
18748;SDS011;9503;53.560;10.246;2023-07-29T04:10:13;25.75;;;17.27;;
18748;SDS011;9503;53.560;10.246;2023-07-29T04:12:40;22.63;;;16.50;;
18748;SDS011;9503;53.560;10.246;2023-07-29T04:15:08;28.25;;;17.95;;
18748;SDS011;9503;53.560;10.246;2023-07-29T04:17:35;28.65;;;18.20;;
18748;SDS011;9503;53.560;10.246;2023-07-29T04:20:02;27.38;;;18.42;;
18748;SDS011;9503;53.560;10.246;2023-07-29T04:22:28;30.05;;;19.63;;
18748;SDS011;9503;53.560;10.246;2023-07-29T04:24:55;25.50;;;17.05;;
18748;SDS011;9503;53.560;10.246;2023-07-29T04:27:22;28.92;;;18.55;;
18748;SDS011;9503;53.560;10.246;2023-07-29T04:29:48;27.10;;;18.75;;
18748;SDS011;9503;53.560;10.246;2023-07-29T04:32:16;29.98;;;19.45;;
18748;SDS011;9503;53.560;10.246;2023-07-29T04:34:43;28.98;;;19.35;;
18748;SDS011;9503;53.560;10.246;2023-07-29T04:37:10;28.20;;;19.50;;
18748;SDS011;9503;53.560;10.246;2023-07-29T04:39:36;31.02;;;20.30;;
18748;SDS011;9503;53.560;10.246;2023-07-29T04:42:03;26.20;;;18.95;;
18748;SDS011;9503;53.560;10.246;2023-07-29T04:44:30;29.02;;;19.85;;
18748;SDS011;9503;53.560;10.246;2023-07-29T04:46:56;27.13;;;19.35;;
18748;SDS011;9503;53.560;10.246;2023-07-29T04:49:25;28.42;;;19.60;;
18748;SDS011;9503;53.560;10.246;2023-07-29T04:51:51;31.45;;;19.45;;
18748;SDS011;9503;53.560;10.246;2023-07-29T04:54:18;28.58;;;19.88;;
18748;SDS011;9503;53.560;10.246;2023-07-29T04:56:45;29.65;;;19.85;;
18748;SDS011;9503;53.560;10.246;2023-07-29T04:59:12;25.27;;;18.85;;
18748;SDS011;9503;53.560;10.246;2023-07-29T05:01:39;28.05;;;19.92;;
18748;SDS011;9503;53.560;10.246;2023-07-29T05:04:07;31.70;;;20.50;;
18748;SDS011;9503;53.560;10.246;2023-07-29T05:06:35;28.13;;;19.10;;
18748;SDS011;9503;53.560;10.246;2023-07-29T05:09:12;29.55;;;21.38;;
18748;SDS011;9503;53.560;10.246;2023-07-29T05:11:39;34.42;;;22.55;;
18748;SDS011;9503;53.560;10.246;2023-07-29T05:14:06;38.95;;;23.73;;
18748;SDS011;9503;53.560;10.246;2023-07-29T05:16:34;39.67;;;23.13;;
18748;SDS011;9503;53.560;10.246;2023-07-29T05:19:00;42.00;;;25.40;;
18748;SDS011;9503;53.560;10.246;2023-07-29T05:21:27;44.70;;;24.80;;
18748;SDS011;9503;53.560;10.246;2023-07-29T05:23:55;38.30;;;23.45;;
18748;SDS011;9503;53.560;10.246;2023-07-29T05:26:21;31.13;;;21.38;;
18748;SDS011;9503;53.560;10.246;2023-07-29T05:28:48;37.08;;;23.30;;
18748;SDS011;9503;53.560;10.246;2023-07-29T05:31:15;29.40;;;21.60;;
18748;SDS011;9503;53.560;10.246;2023-07-29T05:33:41;31.08;;;21.23;;
18748;SDS011;9503;53.560;10.246;2023-07-29T05:36:08;30.92;;;22.00;;
18748;SDS011;9503;53.560;10.246;2023-07-29T05:38:35;31.73;;;22.52;;
18748;SDS011;9503;53.560;10.246;2023-07-29T05:41:03;34.90;;;22.38;;
18748;SDS011;9503;53.560;10.246;2023-07-29T05:43:29;37.30;;;23.48;;
18748;SDS011;9503;53.560;10.246;2023-07-29T05:45:56;37.50;;;25.30;;
18748;SDS011;9503;53.560;10.246;2023-07-29T05:48:22;34.85;;;24.30;;
18748;SDS011;9503;53.560;10.246;2023-07-29T05:50:49;40.72;;;27.08;;
18748;SDS011;9503;53.560;10.246;2023-07-29T05:53:16;41.88;;;27.13;;
18748;SDS011;9503;53.560;10.246;2023-07-29T05:55:42;41.45;;;29.00;;
18748;SDS011;9503;53.560;10.246;2023-07-29T05:58:10;49.63;;;29.92;;
18748;SDS011;9503;53.560;10.246;2023-07-29T06:00:37;43.78;;;29.25;;
18748;SDS011;9503;53.560;10.246;2023-07-29T06:03:04;38.80;;;27.55;;
18748;SDS011;9503;53.560;10.246;2023-07-29T06:05:30;38.47;;;27.45;;
18748;SDS011;9503;53.560;10.246;2023-07-29T06:07:57;39.67;;;28.45;;
18748;SDS011;9503;53.560;10.246;2023-07-29T06:10:24;35.88;;;25.35;;
18748;SDS011;9503;53.560;10.246;2023-07-29T06:12:50;36.55;;;26.60;;
18748;SDS011;9503;53.560;10.246;2023-07-29T06:15:18;36.65;;;25.73;;
18748;SDS011;9503;53.560;10.246;2023-07-29T06:17:47;31.55;;;22.90;;
18748;SDS011;9503;53.560;10.246;2023-07-29T06:20:14;31.85;;;23.70;;
18748;SDS011;9503;53.560;10.246;2023-07-29T06:22:41;30.63;;;22.92;;
18748;SDS011;9503;53.560;10.246;2023-07-29T06:25:08;30.88;;;21.75;;
18748;SDS011;9503;53.560;10.246;2023-07-29T06:27:35;31.50;;;21.25;;
18748;SDS011;9503;53.560;10.246;2023-07-29T06:30:01;31.05;;;20.95;;
18748;SDS011;9503;53.560;10.246;2023-07-29T06:32:31;31.00;;;22.08;;
18748;SDS011;9503;53.560;10.246;2023-07-29T06:34:58;28.83;;;21.00;;
18748;SDS011;9503;53.560;10.246;2023-07-29T06:37:24;29.13;;;21.02;;
18748;SDS011;9503;53.560;10.246;2023-07-29T06:39:51;27.80;;;20.08;;
18748;SDS011;9503;53.560;10.246;2023-07-29T06:42:17;27.95;;;21.60;;
18748;SDS011;9503;53.560;10.246;2023-07-29T06:44:44;28.27;;;21.15;;
18748;SDS011;9503;53.560;10.246;2023-07-29T06:47:11;25.17;;;20.40;;
18748;SDS011;9503;53.560;10.246;2023-07-29T06:49:39;25.92;;;18.75;;
18748;SDS011;9503;53.560;10.246;2023-07-29T06:52:05;27.90;;;18.55;;
18748;SDS011;9503;53.560;10.246;2023-07-29T06:54:32;24.60;;;18.35;;
18748;SDS011;9503;53.560;10.246;2023-07-29T06:56:59;26.55;;;21.33;;
18748;SDS011;9503;53.560;10.246;2023-07-29T06:59:25;24.08;;;18.63;;
18748;SDS011;9503;53.560;10.246;2023-07-29T07:01:52;22.27;;;17.73;;
18748;SDS011;9503;53.560;10.246;2023-07-29T07:04:19;21.08;;;17.55;;
18748;SDS011;9503;53.560;10.246;2023-07-29T07:06:46;22.50;;;17.00;;
18748;SDS011;9503;53.560;10.246;2023-07-29T07:09:13;21.90;;;17.90;;
18748;SDS011;9503;53.560;10.246;2023-07-29T07:11:40;18.15;;;16.08;;
18748;SDS011;9503;53.560;10.246;2023-07-29T07:14:06;22.40;;;17.63;;
18748;SDS011;9503;53.560;10.246;2023-07-29T07:16:33;18.45;;;14.30;;
18748;SDS011;9503;53.560;10.246;2023-07-29T07:19:01;19.75;;;15.45;;
18748;SDS011;9503;53.560;10.246;2023-07-29T07:21:28;18.35;;;15.45;;
18748;SDS011;9503;53.560;10.246;2023-07-29T07:23:56;20.30;;;16.73;;
18748;SDS011;9503;53.560;10.246;2023-07-29T07:26:23;22.42;;;19.13;;
18748;SDS011;9503;53.560;10.246;2023-07-29T07:28:49;26.00;;;19.13;;
18748;SDS011;9503;53.560;10.246;2023-07-29T07:31:17;22.38;;;18.48;;
18748;SDS011;9503;53.560;10.246;2023-07-29T07:33:44;24.33;;;18.08;;
18748;SDS011;9503;53.560;10.246;2023-07-29T07:36:10;21.77;;;17.45;;
18748;SDS011;9503;53.560;10.246;2023-07-29T07:38:37;22.73;;;16.92;;
18748;SDS011;9503;53.560;10.246;2023-07-29T07:41:05;19.02;;;15.75;;
18748;SDS011;9503;53.560;10.246;2023-07-29T07:43:31;17.95;;;15.45;;
18748;SDS011;9503;53.560;10.246;2023-07-29T07:45:58;17.85;;;14.25;;
18748;SDS011;9503;53.560;10.246;2023-07-29T07:48:26;17.48;;;13.77;;
18748;SDS011;9503;53.560;10.246;2023-07-29T07:50:52;18.83;;;13.50;;
18748;SDS011;9503;53.560;10.246;2023-07-29T07:53:19;16.38;;;12.10;;
18748;SDS011;9503;53.560;10.246;2023-07-29T07:55:46;17.05;;;13.25;;
18748;SDS011;9503;53.560;10.246;2023-07-29T07:58:14;16.65;;;12.32;;
18748;SDS011;9503;53.560;10.246;2023-07-29T08:00:40;15.05;;;11.90;;
18748;SDS011;9503;53.560;10.246;2023-07-29T08:03:07;14.70;;;12.32;;
18748;SDS011;9503;53.560;10.246;2023-07-29T08:05:33;16.90;;;11.43;;
18748;SDS011;9503;53.560;10.246;2023-07-29T08:08:00;17.15;;;11.48;;
18748;SDS011;9503;53.560;10.246;2023-07-29T08:10:27;11.80;;;9.80;;
18748;SDS011;9503;53.560;10.246;2023-07-29T08:12:53;13.65;;;10.20;;
18748;SDS011;9503;53.560;10.246;2023-07-29T08:15:21;12.73;;;10.10;;
18748;SDS011;9503;53.560;10.246;2023-07-29T08:17:48;11.43;;;9.60;;
18748;SDS011;9503;53.560;10.246;2023-07-29T08:20:14;11.85;;;9.25;;
18748;SDS011;9503;53.560;10.246;2023-07-29T08:22:41;10.50;;;8.65;;
18748;SDS011;9503;53.560;10.246;2023-07-29T08:25:08;9.52;;;8.02;;
18748;SDS011;9503;53.560;10.246;2023-07-29T08:27:34;10.50;;;8.23;;
18748;SDS011;9503;53.560;10.246;2023-07-29T08:30:01;8.45;;;7.53;;
18748;SDS011;9503;53.560;10.246;2023-07-29T08:32:29;10.98;;;8.00;;
18748;SDS011;9503;53.560;10.246;2023-07-29T08:34:56;9.95;;;7.80;;
18748;SDS011;9503;53.560;10.246;2023-07-29T08:37:22;9.13;;;7.75;;
18748;SDS011;9503;53.560;10.246;2023-07-29T08:39:49;8.63;;;7.45;;
18748;SDS011;9503;53.560;10.246;2023-07-29T08:42:19;8.35;;;7.47;;
18748;SDS011;9503;53.560;10.246;2023-07-29T08:44:48;8.90;;;7.50;;
18748;SDS011;9503;53.560;10.246;2023-07-29T08:47:16;10.18;;;7.82;;
18748;SDS011;9503;53.560;10.246;2023-07-29T08:49:44;8.23;;;7.43;;
18748;SDS011;9503;53.560;10.246;2023-07-29T08:52:13;10.07;;;8.70;;
18748;SDS011;9503;53.560;10.246;2023-07-29T08:54:40;12.05;;;8.15;;
18748;SDS011;9503;53.560;10.246;2023-07-29T08:57:07;10.02;;;8.25;;
18748;SDS011;9503;53.560;10.246;2023-07-29T08:59:35;9.35;;;8.32;;
18748;SDS011;9503;53.560;10.246;2023-07-29T09:02:02;12.93;;;9.63;;
18748;SDS011;9503;53.560;10.246;2023-07-29T09:04:29;9.55;;;8.10;;
18748;SDS011;9503;53.560;10.246;2023-07-29T09:06:57;8.68;;;7.72;;
18748;SDS011;9503;53.560;10.246;2023-07-29T09:09:25;8.82;;;7.93;;
18748;SDS011;9503;53.560;10.246;2023-07-29T09:11:52;8.45;;;6.70;;
18748;SDS011;9503;53.560;10.246;2023-07-29T09:14:18;8.13;;;7.32;;
18748;SDS011;9503;53.560;10.246;2023-07-29T09:16:46;8.60;;;6.80;;
18748;SDS011;9503;53.560;10.246;2023-07-29T09:19:12;8.75;;;6.68;;
18748;SDS011;9503;53.560;10.246;2023-07-29T09:21:39;11.65;;;6.93;;
18748;SDS011;9503;53.560;10.246;2023-07-29T09:24:08;7.80;;;6.35;;
18748;SDS011;9503;53.560;10.246;2023-07-29T09:26:35;7.65;;;6.70;;
18748;SDS011;9503;53.560;10.246;2023-07-29T09:29:02;8.02;;;7.25;;
18748;SDS011;9503;53.560;10.246;2023-07-29T09:31:29;8.93;;;6.38;;
18748;SDS011;9503;53.560;10.246;2023-07-29T09:33:56;7.43;;;6.68;;
18748;SDS011;9503;53.560;10.246;2023-07-29T09:36:24;8.98;;;8.07;;
18748;SDS011;9503;53.560;10.246;2023-07-29T09:38:54;8.82;;;7.80;;
18748;SDS011;9503;53.560;10.246;2023-07-29T09:41:23;9.40;;;7.32;;
18748;SDS011;9503;53.560;10.246;2023-07-29T09:43:55;9.13;;;7.95;;
18748;SDS011;9503;53.560;10.246;2023-07-29T09:46:23;11.18;;;8.43;;
18748;SDS011;9503;53.560;10.246;2023-07-29T09:48:52;9.52;;;8.02;;
18748;SDS011;9503;53.560;10.246;2023-07-29T09:51:21;10.65;;;8.25;;
18748;SDS011;9503;53.560;10.246;2023-07-29T09:53:47;9.05;;;7.55;;
18748;SDS011;9503;53.560;10.246;2023-07-29T09:56:15;9.98;;;7.63;;
18748;SDS011;9503;53.560;10.246;2023-07-29T09:58:44;11.38;;;7.97;;
18748;SDS011;9503;53.560;10.246;2023-07-29T10:01:11;9.15;;;8.25;;
18748;SDS011;9503;53.560;10.246;2023-07-29T10:03:39;8.63;;;7.75;;
18748;SDS011;9503;53.560;10.246;2023-07-29T10:06:06;9.85;;;8.60;;
18748;SDS011;9503;53.560;10.246;2023-07-29T10:08:33;10.88;;;8.05;;
18748;SDS011;9503;53.560;10.246;2023-07-29T10:11:03;10.40;;;8.35;;
18748;SDS011;9503;53.560;10.246;2023-07-29T10:13:31;9.70;;;8.20;;
18748;SDS011;9503;53.560;10.246;2023-07-29T10:16:00;16.20;;;8.90;;
18748;SDS011;9503;53.560;10.246;2023-07-29T10:18:28;8.65;;;7.50;;
18748;SDS011;9503;53.560;10.246;2023-07-29T10:20:56;8.27;;;7.00;;
18748;SDS011;9503;53.560;10.246;2023-07-29T10:23:24;11.48;;;7.38;;
18748;SDS011;9503;53.560;10.246;2023-07-29T10:25:55;9.48;;;7.38;;
18748;SDS011;9503;53.560;10.246;2023-07-29T10:28:29;8.95;;;6.65;;
18748;SDS011;9503;53.560;10.246;2023-07-29T10:30:57;7.97;;;7.18;;
18748;SDS011;9503;53.560;10.246;2023-07-29T10:33:25;7.38;;;6.35;;
18748;SDS011;9503;53.560;10.246;2023-07-29T10:35:52;6.72;;;6.03;;
18748;SDS011;9503;53.560;10.246;2023-07-29T10:38:20;8.13;;;5.63;;
18748;SDS011;9503;53.560;10.246;2023-07-29T10:40:50;7.30;;;5.93;;
18748;SDS011;9503;53.560;10.246;2023-07-29T10:43:19;5.85;;;5.25;;
18748;SDS011;9503;53.560;10.246;2023-07-29T10:45:50;5.95;;;5.35;;
18748;SDS011;9503;53.560;10.246;2023-07-29T10:51:22;6.05;;;4.50;;
18748;SDS011;9503;53.560;10.246;2023-07-29T10:53:54;5.15;;;4.45;;
18748;SDS011;9503;53.560;10.246;2023-07-29T10:56:28;6.80;;;4.88;;
18748;SDS011;9503;53.560;10.246;2023-07-29T10:58:58;4.72;;;3.97;;
18748;SDS011;9503;53.560;10.246;2023-07-29T11:01:28;5.40;;;3.67;;
18748;SDS011;9503;53.560;10.246;2023-07-29T11:09:52;5.50;;;3.75;;
18748;SDS011;9503;53.560;10.246;2023-07-29T11:12:39;3.92;;;3.55;;
18748;SDS011;9503;53.560;10.246;2023-07-29T11:15:12;6.07;;;3.55;;
18748;SDS011;9503;53.560;10.246;2023-07-29T11:17:48;3.53;;;3.20;;
18748;SDS011;9503;53.560;10.246;2023-07-29T11:20:17;2.95;;;2.75;;
18748;SDS011;9503;53.560;10.246;2023-07-29T11:22:45;3.78;;;2.90;;
18748;SDS011;9503;53.560;10.246;2023-07-29T11:25:13;6.57;;;3.10;;
18748;SDS011;9503;53.560;10.246;2023-07-29T11:27:40;3.22;;;2.85;;
18748;SDS011;9503;53.560;10.246;2023-07-29T11:30:08;3.40;;;2.97;;
18748;SDS011;9503;53.560;10.246;2023-07-29T11:32:36;3.25;;;2.72;;
18748;SDS011;9503;53.560;10.246;2023-07-29T11:35:04;3.65;;;2.67;;
18748;SDS011;9503;53.560;10.246;2023-07-29T11:37:34;4.28;;;2.60;;
18748;SDS011;9503;53.560;10.246;2023-07-29T11:40:01;8.00;;;3.03;;
18748;SDS011;9503;53.560;10.246;2023-07-29T11:42:28;4.50;;;2.80;;
18748;SDS011;9503;53.560;10.246;2023-07-29T11:44:56;2.67;;;2.47;;
18748;SDS011;9503;53.560;10.246;2023-07-29T11:47:23;3.25;;;2.72;;
18748;SDS011;9503;53.560;10.246;2023-07-29T11:49:49;2.70;;;2.28;;
18748;SDS011;9503;53.560;10.246;2023-07-29T11:52:16;2.58;;;2.42;;
18748;SDS011;9503;53.560;10.246;2023-07-29T11:54:46;3.65;;;2.72;;
18748;SDS011;9503;53.560;10.246;2023-07-29T11:57:14;2.72;;;2.50;;
18748;SDS011;9503;53.560;10.246;2023-07-29T11:59:41;3.08;;;2.70;;
18748;SDS011;9503;53.560;10.246;2023-07-29T12:02:09;3.03;;;2.72;;
18748;SDS011;9503;53.560;10.246;2023-07-29T12:04:38;2.72;;;2.50;;
18748;SDS011;9503;53.560;10.246;2023-07-29T12:07:06;2.72;;;2.53;;
18748;SDS011;9503;53.560;10.246;2023-07-29T12:09:33;2.58;;;2.25;;
18748;SDS011;9503;53.560;10.246;2023-07-29T12:12:01;3.17;;;2.78;;
18748;SDS011;9503;53.560;10.246;2023-07-29T12:14:28;4.75;;;3.50;;
18748;SDS011;9503;53.560;10.246;2023-07-29T12:16:55;5.93;;;3.42;;
18748;SDS011;9503;53.560;10.246;2023-07-29T12:19:21;6.88;;;4.25;;
18748;SDS011;9503;53.560;10.246;2023-07-29T12:21:50;6.10;;;4.38;;
18748;SDS011;9503;53.560;10.246;2023-07-29T12:24:17;4.00;;;3.70;;
18748;SDS011;9503;53.560;10.246;2023-07-29T12:26:43;5.63;;;3.90;;
18748;SDS011;9503;53.560;10.246;2023-07-29T12:29:12;5.85;;;3.88;;
18748;SDS011;9503;53.560;10.246;2023-07-29T12:31:39;6.32;;;3.60;;
18748;SDS011;9503;53.560;10.246;2023-07-29T12:34:06;4.20;;;3.40;;
18748;SDS011;9503;53.560;10.246;2023-07-29T12:36:42;4.10;;;3.70;;
18748;SDS011;9503;53.560;10.246;2023-07-29T12:39:16;4.82;;;4.30;;
18748;SDS011;9503;53.560;10.246;2023-07-29T12:41:44;3.70;;;3.33;;
18748;SDS011;9503;53.560;10.246;2023-07-29T12:44:12;7.03;;;4.00;;
18748;SDS011;9503;53.560;10.246;2023-07-29T12:46:39;5.13;;;3.67;;
18748;SDS011;9503;53.560;10.246;2023-07-29T12:49:05;5.53;;;3.45;;
18748;SDS011;9503;53.560;10.246;2023-07-29T12:51:32;3.75;;;3.45;;
18748;SDS011;9503;53.560;10.246;2023-07-29T12:53:59;5.03;;;3.33;;
18748;SDS011;9503;53.560;10.246;2023-07-29T12:56:26;3.88;;;3.13;;
18748;SDS011;9503;53.560;10.246;2023-07-29T12:58:52;3.25;;;2.95;;
18748;SDS011;9503;53.560;10.246;2023-07-29T13:01:20;3.08;;;2.80;;
18748;SDS011;9503;53.560;10.246;2023-07-29T13:03:47;2.63;;;2.42;;
18748;SDS011;9503;53.560;10.246;2023-07-29T13:06:14;3.17;;;2.97;;
18748;SDS011;9503;53.560;10.246;2023-07-29T13:08:41;2.30;;;2.10;;
18748;SDS011;9503;53.560;10.246;2023-07-29T13:11:08;3.20;;;2.90;;
18748;SDS011;9503;53.560;10.246;2023-07-29T13:13:35;2.55;;;2.38;;
18748;SDS011;9503;53.560;10.246;2023-07-29T13:16:01;9.48;;;6.70;;
18748;SDS011;9503;53.560;10.246;2023-07-29T13:18:29;3.05;;;2.75;;
18748;SDS011;9503;53.560;10.246;2023-07-29T13:20:56;3.30;;;2.50;;
18748;SDS011;9503;53.560;10.246;2023-07-29T13:23:23;4.60;;;4.18;;
18748;SDS011;9503;53.560;10.246;2023-07-29T13:25:50;15.52;;;13.93;;
18748;SDS011;9503;53.560;10.246;2023-07-29T13:28:16;18.30;;;14.20;;
18748;SDS011;9503;53.560;10.246;2023-07-29T13:30:44;20.50;;;14.38;;
18748;SDS011;9503;53.560;10.246;2023-07-29T13:33:10;19.63;;;12.55;;
18748;SDS011;9503;53.560;10.246;2023-07-29T13:35:38;10.48;;;7.97;;
18748;SDS011;9503;53.560;10.246;2023-07-29T13:38:05;2.67;;;2.47;;
18748;SDS011;9503;53.560;10.246;2023-07-29T13:40:32;5.50;;;4.50;;
18748;SDS011;9503;53.560;10.246;2023-07-29T13:42:58;2.67;;;2.47;;
18748;SDS011;9503;53.560;10.246;2023-07-29T13:45:25;3.55;;;2.28;;
18748;SDS011;9503;53.560;10.246;2023-07-29T13:47:52;2.30;;;2.10;;
18748;SDS011;9503;53.560;10.246;2023-07-29T13:50:18;2.25;;;2.08;;
18748;SDS011;9503;53.560;10.246;2023-07-29T13:52:46;2.17;;;1.83;;
18748;SDS011;9503;53.560;10.246;2023-07-29T13:55:13;3.92;;;2.25;;
18748;SDS011;9503;53.560;10.246;2023-07-29T13:57:39;1.90;;;1.80;;
18748;SDS011;9503;53.560;10.246;2023-07-29T14:00:06;2.28;;;1.92;;
18748;SDS011;9503;53.560;10.246;2023-07-29T14:02:34;2.30;;;1.95;;
18748;SDS011;9503;53.560;10.246;2023-07-29T14:05:00;2.42;;;2.20;;
18748;SDS011;9503;53.560;10.246;2023-07-29T14:07:27;5.72;;;2.10;;
18748;SDS011;9503;53.560;10.246;2023-07-29T14:09:55;5.35;;;2.17;;
18748;SDS011;9503;53.560;10.246;2023-07-29T14:12:22;3.58;;;2.17;;
18748;SDS011;9503;53.560;10.246;2023-07-29T14:14:48;2.22;;;2.10;;
18748;SDS011;9503;53.560;10.246;2023-07-29T14:17:15;3.17;;;2.28;;
18748;SDS011;9503;53.560;10.246;2023-07-29T14:19:42;4.53;;;2.25;;
18748;SDS011;9503;53.560;10.246;2023-07-29T14:22:08;3.22;;;2.80;;
18748;SDS011;9503;53.560;10.246;2023-07-29T14:24:35;2.72;;;2.40;;
18748;SDS011;9503;53.560;10.246;2023-07-29T14:27:03;3.20;;;2.90;;
18748;SDS011;9503;53.560;10.246;2023-07-29T14:29:30;7.03;;;6.30;;
18748;SDS011;9503;53.560;10.246;2023-07-29T14:31:57;4.38;;;3.22;;
18748;SDS011;9503;53.560;10.246;2023-07-29T14:34:24;6.68;;;2.70;;
18748;SDS011;9503;53.560;10.246;2023-07-29T14:36:50;4.65;;;2.40;;
18748;SDS011;9503;53.560;10.246;2023-07-29T14:39:17;2.45;;;2.25;;
18748;SDS011;9503;53.560;10.246;2023-07-29T14:41:43;3.97;;;2.33;;
18748;SDS011;9503;53.560;10.246;2023-07-29T14:44:11;2.50;;;2.08;;
18748;SDS011;9503;53.560;10.246;2023-07-29T14:46:39;4.25;;;2.20;;